createdAt,value
2019-02-04T00:00:55.704Z,0.80
2019-02-04T00:04:00.617Z,0.80
2019-02-04T00:07:05.551Z,1.00
2019-02-04T00:10:12.618Z,1.00
2019-02-04T00:13:17.506Z,0.80
2019-02-04T00:16:22.407Z,0.70
2019-02-04T00:19:27.307Z,0.90
2019-02-04T00:22:32.189Z,0.70
2019-02-04T00:25:37.006Z,0.50
2019-02-04T00:28:41.829Z,0.80
2019-02-04T00:31:46.662Z,0.60
2019-02-04T00:34:51.520Z,0.60
2019-02-04T00:37:57.431Z,0.60
2019-02-04T00:41:02.348Z,0.90
2019-02-04T00:44:07.336Z,1.00
2019-02-04T00:47:12.199Z,0.60
2019-02-04T00:50:19.694Z,0.90
2019-02-04T00:53:24.577Z,0.60
2019-02-04T00:56:29.437Z,0.40
2019-02-04T00:59:34.376Z,0.90
2019-02-04T01:02:39.286Z,0.60
2019-02-04T01:05:44.133Z,0.50
2019-02-04T01:08:49.714Z,0.40
2019-02-04T01:11:54.586Z,0.30
2019-02-04T01:14:59.579Z,0.60
2019-02-04T01:18:04.577Z,0.60
2019-02-04T01:21:09.430Z,0.60
2019-02-04T01:24:14.351Z,0.40
2019-02-04T01:27:19.355Z,0.80
2019-02-04T01:30:25.234Z,0.50
2019-02-04T01:33:30.134Z,0.60
2019-02-04T01:36:34.976Z,0.60
2019-02-04T01:39:39.881Z,0.50
2019-02-04T01:42:44.709Z,0.50
2019-02-04T01:45:49.549Z,0.80
2019-02-04T01:48:54.395Z,0.60
2019-02-04T01:51:59.430Z,0.60
2019-02-04T01:55:06.885Z,0.70
2019-02-04T01:58:11.836Z,0.50
2019-02-04T02:01:17.049Z,0.40
2019-02-04T02:04:21.899Z,0.40
2019-02-04T02:07:26.751Z,0.70
2019-02-04T02:10:31.676Z,0.40
2019-02-04T02:13:36.532Z,0.70
2019-02-04T02:16:41.437Z,0.60
2019-02-04T02:19:46.270Z,0.30
2019-02-04T02:22:51.135Z,0.40
2019-02-04T02:25:55.957Z,0.40
2019-02-04T02:29:00.885Z,0.30
2019-02-04T02:32:06.514Z,0.30
2019-02-04T02:35:11.410Z,0.50
2019-02-04T02:38:16.241Z,0.30
2019-02-04T02:41:21.334Z,0.30
2019-02-04T02:44:26.803Z,0.40
2019-02-04T02:47:38.448Z,0.30
2019-02-04T02:50:38.282Z,0.50
2019-02-04T02:53:43.124Z,0.40
2019-02-04T02:56:48.115Z,0.60
2019-02-04T02:59:53.040Z,0.60
2019-02-04T03:02:58.016Z,0.40
2019-02-04T03:06:02.829Z,0.30
2019-02-04T03:09:08.299Z,0.30
2019-02-04T03:12:13.248Z,0.60
2019-02-04T03:15:18.124Z,0.40
2019-02-04T03:18:23.151Z,0.40
2019-02-04T03:21:28.279Z,0.40
2019-02-04T03:24:33.218Z,0.40
2019-02-04T03:27:38.319Z,0.40
2019-02-04T03:30:43.214Z,0.30
2019-02-04T03:33:48.034Z,0.60
2019-02-04T03:36:52.893Z,0.50
2019-02-04T03:39:57.797Z,0.30
2019-02-04T03:43:02.629Z,0.50
2019-02-04T03:46:07.566Z,0.50
2019-02-04T03:49:12.535Z,0.40
2019-02-04T03:52:17.642Z,0.50
2019-02-04T03:55:22.474Z,0.50
2019-02-04T03:58:27.325Z,0.50
2019-02-04T04:01:32.347Z,0.60
2019-02-04T04:04:38.391Z,0.50
2019-02-04T04:07:43.263Z,0.60
2019-02-04T04:10:48.099Z,0.50
2019-02-04T04:13:53.026Z,0.60
2019-02-04T04:16:57.894Z,0.60
2019-02-04T04:20:02.708Z,0.60
2019-02-04T04:23:07.594Z,0.60
2019-02-04T04:26:12.518Z,0.60
2019-02-04T04:29:17.724Z,0.70
2019-02-04T04:32:23.053Z,0.70
2019-02-04T04:35:27.877Z,0.70
2019-02-04T04:38:32.807Z,0.70
2019-02-04T04:41:37.624Z,0.90
2019-02-04T04:44:42.488Z,0.70
2019-02-04T04:47:47.512Z,1.00
2019-02-04T04:50:52.325Z,0.70
2019-02-04T04:53:57.187Z,0.80
2019-02-04T04:57:02.102Z,0.70
2019-02-04T05:00:10.039Z,0.70
2019-02-04T05:03:14.852Z,0.80
2019-02-04T05:06:19.740Z,0.50
2019-02-04T05:09:24.724Z,0.50
2019-02-04T05:12:30.096Z,0.70
2019-02-04T05:15:34.978Z,0.50
2019-02-04T05:18:39.887Z,0.70
2019-02-04T05:21:44.806Z,0.70
2019-02-04T05:24:49.705Z,0.50
2019-02-04T05:27:54.573Z,0.60
2019-02-04T05:30:59.487Z,0.50
2019-02-04T05:34:04.729Z,0.30
2019-02-04T05:37:09.598Z,0.40
2019-02-04T05:40:16.249Z,0.40
2019-02-04T05:43:21.564Z,0.40
2019-02-04T05:46:26.415Z,0.20
2019-02-04T05:49:31.357Z,0.40
2019-02-04T05:52:36.495Z,0.30
2019-02-04T05:55:41.377Z,0.10
2019-02-04T05:58:46.291Z,0.10
2019-02-04T06:01:51.218Z,0.00
2019-02-04T06:04:56.188Z,0.10
2019-02-04T06:08:01.076Z,0.10
2019-02-04T06:11:05.935Z,0.20
2019-02-04T06:14:10.849Z,0.10
2019-02-04T06:17:15.866Z,0.40
2019-02-04T06:20:23.193Z,0.10
2019-02-04T06:23:29.397Z,0.30
2019-02-04T06:26:34.335Z,0.20
2019-02-04T06:29:39.292Z,0.20
2019-02-04T06:32:44.137Z,0.10
2019-02-04T06:35:49.121Z,0.10
2019-02-04T06:38:54.050Z,0.20
2019-02-04T06:41:58.912Z,0.20
2019-02-04T06:45:06.270Z,0.10
2019-02-04T06:48:11.206Z,0.00
2019-02-04T06:51:16.136Z,0.20
2019-02-04T06:54:21.033Z,0.20
2019-02-04T06:57:25.929Z,0.00
2019-02-04T07:00:30.832Z,0.20
2019-02-04T07:03:36.042Z,0.30
2019-02-04T07:06:40.906Z,0.10
2019-02-04T07:09:45.838Z,0.30
2019-02-04T07:12:51.029Z,0.30
2019-02-04T07:15:56.866Z,0.50
2019-02-04T07:19:01.743Z,0.30
2019-02-04T07:22:06.607Z,0.30
2019-02-04T07:25:14.590Z,0.60
2019-02-04T07:28:19.443Z,0.50
2019-02-04T07:31:24.360Z,0.30
2019-02-04T07:34:29.238Z,0.40
2019-02-04T07:37:34.078Z,0.70
2019-02-04T07:40:38.981Z,0.70
2019-02-04T07:43:43.818Z,0.50
2019-02-04T07:46:48.673Z,0.90
2019-02-04T07:49:53.598Z,0.80
2019-02-04T07:52:58.878Z,0.90
2019-02-04T07:56:03.747Z,0.80
2019-02-04T07:59:08.622Z,0.90
2019-02-04T08:02:13.726Z,1.00
2019-02-04T08:05:18.579Z,1.00
2019-02-04T08:08:23.507Z,0.70
2019-02-04T08:11:28.430Z,0.90
2019-02-04T08:14:33.363Z,1.00
2019-02-04T08:17:38.253Z,1.10
2019-02-04T08:20:43.098Z,1.20
2019-02-04T08:23:47.946Z,1.30
2019-02-04T08:26:53.808Z,1.50
2019-02-04T08:29:58.662Z,1.20
2019-02-04T08:33:03.650Z,1.20
2019-02-04T08:36:08.748Z,1.40
2019-02-04T08:39:13.677Z,1.70
2019-02-04T08:42:18.998Z,1.60
2019-02-04T08:45:23.893Z,1.90
2019-02-04T08:48:28.827Z,2.00
2019-02-04T08:51:34.051Z,1.90
2019-02-04T08:54:38.943Z,1.90
2019-02-04T08:57:44.164Z,1.90
2019-02-04T09:00:49.345Z,2.10
2019-02-04T09:03:54.176Z,2.00
2019-02-04T09:06:59.114Z,2.30
2019-02-04T09:10:07.003Z,2.50
2019-02-04T09:13:12.078Z,2.80
2019-02-04T09:16:16.974Z,2.80
2019-02-04T09:19:21.914Z,2.90
2019-02-04T09:22:26.815Z,3.00
2019-02-04T09:25:31.646Z,2.90
2019-02-04T09:28:36.475Z,3.00
2019-02-04T09:31:41.296Z,3.30
2019-02-04T09:34:46.292Z,3.40
2019-02-04T09:37:51.285Z,3.40
2019-02-04T09:40:56.193Z,3.40
2019-02-04T09:44:01.140Z,3.50
2019-02-04T09:47:06.037Z,3.70
2019-02-04T09:50:21.461Z,4.00
2019-02-04T09:53:20.742Z,4.10
2019-02-04T09:56:26.290Z,3.90
2019-02-04T09:59:31.418Z,3.90
2019-02-04T10:02:36.314Z,4.30
2019-02-04T10:05:41.302Z,4.50
2019-02-04T10:08:46.254Z,4.10
2019-02-04T10:11:51.154Z,4.60
2019-02-04T10:14:56.894Z,4.80
2019-02-04T10:18:01.809Z,4.80
2019-02-04T10:21:06.719Z,4.80
2019-02-04T10:24:11.673Z,4.80
2019-02-04T10:27:16.578Z,4.90
2019-02-04T10:30:23.644Z,4.90
2019-02-04T10:33:28.555Z,4.90
2019-02-04T10:36:33.480Z,5.20
2019-02-04T10:39:38.544Z,5.20
2019-02-04T10:42:43.503Z,5.30
2019-02-04T10:45:49.186Z,5.20
2019-02-04T10:48:54.080Z,5.30
2019-02-04T10:51:58.996Z,5.40
2019-02-04T10:55:05.374Z,5.40
2019-02-04T10:58:12.239Z,5.70
2019-02-04T11:01:17.156Z,5.70
2019-02-04T11:04:23.033Z,6.00
2019-02-04T11:07:28.046Z,5.90
2019-02-04T11:10:35.038Z,5.80
2019-02-04T11:13:40.013Z,6.00
2019-02-04T11:16:44.946Z,6.00
2019-02-04T11:19:49.870Z,6.00
2019-02-04T11:22:54.871Z,6.30
2019-02-04T11:25:59.789Z,6.30
2019-02-04T11:29:05.063Z,6.10
2019-02-04T11:32:10.093Z,6.50
2019-02-04T11:35:15.065Z,6.10
2019-02-04T11:38:20.016Z,6.20
2019-02-04T11:41:24.898Z,6.20
2019-02-04T11:44:29.847Z,6.20
2019-02-04T11:47:34.710Z,6.20
2019-02-04T11:50:40.362Z,6.30
2019-02-04T11:53:45.198Z,6.70
2019-02-04T11:56:50.010Z,6.40
2019-02-04T11:59:54.825Z,6.30
2019-02-04T12:03:02.013Z,6.40
2019-02-04T12:06:06.916Z,6.50
2019-02-04T12:09:12.375Z,6.90
2019-02-04T12:12:17.187Z,6.80
2019-02-04T12:15:25.946Z,6.60
2019-02-04T12:18:31.875Z,6.90
2019-02-04T12:21:37.152Z,6.50
2019-02-04T12:24:42.010Z,6.90
2019-02-04T12:27:46.882Z,6.50
2019-02-04T12:30:52.429Z,6.60
2019-02-04T12:33:57.270Z,6.60
2019-02-04T12:37:02.112Z,6.60
2019-02-04T12:40:10.962Z,6.90
2019-02-04T12:43:15.871Z,7.10
2019-02-04T12:46:20.795Z,6.90
2019-02-04T12:49:25.626Z,6.90
2019-02-04T12:52:30.546Z,7.10
2019-02-04T12:55:35.505Z,6.90
2019-02-04T12:58:40.334Z,7.10
2019-02-04T13:01:45.459Z,6.60
2019-02-04T13:04:50.271Z,6.60
2019-02-04T13:07:55.205Z,6.50
2019-02-04T13:11:01.231Z,6.50
2019-02-04T13:14:06.287Z,6.70
2019-02-04T13:17:11.110Z,6.40
2019-02-04T13:20:22.077Z,6.50
2019-02-04T13:23:26.923Z,6.90
2019-02-04T13:26:31.823Z,6.30
2019-02-04T13:29:36.651Z,6.10
2019-02-04T13:32:41.464Z,6.20
2019-02-04T13:35:46.539Z,6.20
2019-02-04T13:38:51.434Z,6.20
2019-02-04T13:41:56.707Z,6.30
2019-02-04T13:45:01.576Z,6.30
2019-02-04T13:48:08.553Z,6.50
2019-02-04T13:51:13.454Z,6.30
2019-02-04T13:54:18.362Z,6.30
2019-02-04T13:57:23.347Z,6.30
2019-02-04T14:00:28.445Z,6.30
2019-02-04T14:03:33.335Z,6.30
2019-02-04T14:06:38.259Z,6.30
2019-02-04T14:09:43.155Z,6.10
2019-02-04T14:12:48.392Z,6.00
2019-02-04T14:15:53.347Z,5.80
2019-02-04T14:18:58.791Z,5.90
2019-02-04T14:22:09.277Z,5.80
2019-02-04T14:25:10.529Z,6.10
2019-02-04T14:28:15.451Z,5.70
2019-02-04T14:31:20.360Z,5.90
2019-02-04T14:34:25.176Z,5.70
2019-02-04T14:37:30.058Z,5.60
2019-02-04T14:40:34.963Z,5.70
2019-02-04T14:43:40.212Z,5.80
2019-02-04T14:46:53.739Z,5.60
2019-02-04T14:50:18.966Z,5.70
2019-02-04T14:53:48.281Z,5.50
2019-02-04T14:56:56.181Z,5.50
2019-02-04T15:00:04.109Z,5.10
2019-02-04T15:03:19.687Z,5.30
2019-02-04T15:06:56.091Z,5.40
2019-02-04T15:10:06.717Z,5.40
2019-02-04T15:13:32.598Z,5.20
2019-02-04T15:16:40.590Z,5.10
2019-02-04T15:19:57.435Z,4.90
2019-02-04T15:23:08.052Z,4.60
2019-02-04T15:26:18.940Z,4.60
2019-02-04T15:29:46.869Z,4.90
2019-02-04T15:33:12.384Z,4.80
2019-02-04T15:36:35.475Z,4.70
2019-02-04T15:39:51.948Z,4.60
2019-02-04T15:43:19.373Z,4.40
2019-02-04T15:46:36.283Z,4.40
2019-02-04T15:49:57.709Z,4.40
2019-02-04T15:53:02.569Z,4.10
2019-02-04T15:56:07.567Z,4.40
2019-02-04T15:59:12.409Z,4.20
2019-02-04T16:02:17.262Z,4.20
2019-02-04T16:05:22.102Z,4.40
2019-02-04T16:08:26.953Z,3.90
2019-02-04T16:11:31.856Z,3.80
2019-02-04T16:14:36.806Z,3.70
2019-02-04T16:17:42.518Z,3.80
2019-02-04T16:20:48.288Z,3.50
2019-02-04T16:23:54.139Z,3.30
2019-02-04T16:26:59.019Z,3.40
2019-02-04T16:30:09.746Z,3.30
2019-02-04T16:33:14.704Z,3.40
2019-02-04T16:36:19.607Z,3.20
2019-02-04T16:39:24.937Z,3.10
2019-02-04T16:42:29.769Z,3.20
2019-02-04T16:45:34.763Z,3.00
2019-02-04T16:48:42.707Z,3.10
2019-02-04T16:51:47.540Z,3.10
2019-02-04T16:54:52.474Z,3.00
2019-02-04T16:57:57.395Z,3.20
2019-02-04T17:01:02.643Z,3.30
2019-02-04T17:04:07.510Z,2.80
2019-02-04T17:07:12.432Z,2.80
2019-02-04T17:10:21.516Z,2.80
2019-02-04T17:13:26.453Z,2.80
2019-02-04T17:16:31.340Z,2.60
2019-02-04T17:19:37.157Z,2.50
2019-02-04T17:22:42.084Z,2.70
2019-02-04T17:25:48.037Z,2.50
2019-02-04T17:28:52.863Z,2.60
2019-02-04T17:32:00.421Z,2.70
2019-02-04T17:35:05.622Z,2.70
2019-02-04T17:38:10.933Z,2.60
2019-02-04T17:41:16.118Z,2.60
2019-02-04T17:44:21.021Z,2.20
2019-02-04T17:47:25.886Z,2.40
2019-02-04T17:50:30.822Z,2.60
2019-02-04T17:53:35.730Z,2.60
2019-02-04T17:56:40.548Z,2.50
2019-02-04T17:59:45.395Z,2.40
2019-02-04T18:02:50.514Z,2.30
2019-02-04T18:05:55.406Z,2.40
2019-02-04T18:09:00.938Z,2.50
2019-02-04T18:12:06.834Z,2.30
2019-02-04T18:15:14.873Z,2.40
2019-02-04T18:18:19.842Z,2.20
2019-02-04T18:21:25.071Z,2.00
2019-02-04T18:24:30.019Z,2.40
2019-02-04T18:27:35.219Z,2.20
2019-02-04T18:30:40.402Z,2.10
2019-02-04T18:33:45.373Z,2.00
2019-02-04T18:36:50.350Z,2.10
2019-02-04T18:39:55.291Z,2.20
2019-02-04T18:43:00.214Z,2.40
2019-02-04T18:46:05.336Z,2.40
2019-02-04T18:49:10.545Z,2.20
2019-02-04T18:52:15.417Z,2.10
2019-02-04T18:55:26.444Z,2.20
2019-02-04T18:58:33.171Z,2.40
2019-02-04T19:01:38.211Z,2.20
2019-02-04T19:04:43.156Z,2.20
2019-02-04T19:07:48.081Z,2.20
2019-02-04T19:10:52.987Z,2.10
2019-02-04T19:13:58.215Z,2.20
2019-02-04T19:17:04.139Z,2.10
2019-02-04T19:20:14.871Z,2.10
2019-02-04T19:23:19.828Z,2.10
2019-02-04T19:26:24.713Z,2.20
2019-02-04T19:29:29.585Z,1.70
2019-02-04T19:32:34.431Z,2.10
2019-02-04T19:35:39.363Z,1.90
2019-02-04T19:38:44.278Z,1.90
2019-02-04T19:41:50.137Z,2.00
2019-02-04T19:44:55.036Z,2.10
2019-02-04T19:48:03.003Z,1.80
2019-02-04T19:51:06.426Z,1.70
2019-02-04T19:54:21.216Z,1.90
2019-02-04T19:57:18.302Z,1.80
2019-02-04T20:00:23.982Z,2.20
2019-02-04T20:03:28.913Z,2.00
2019-02-04T20:06:33.831Z,1.70
2019-02-04T20:09:39.144Z,1.60
2019-02-04T20:12:43.984Z,1.70
2019-02-04T20:15:49.182Z,1.50
2019-02-04T20:18:54.114Z,1.90
2019-02-04T20:21:58.952Z,1.70
2019-02-04T20:25:06.565Z,1.80
2019-02-04T20:28:11.423Z,1.70
2019-02-04T20:31:16.348Z,1.80
2019-02-04T20:34:21.312Z,1.80
2019-02-04T20:37:26.234Z,1.60
2019-02-04T20:40:31.533Z,1.70
2019-02-04T20:43:36.845Z,1.40
2019-02-04T20:46:41.735Z,1.90
2019-02-04T20:49:46.692Z,1.80
2019-02-04T20:52:53.046Z,1.70
2019-02-04T20:55:58.449Z,1.90
2019-02-04T20:59:03.284Z,1.90
2019-02-04T21:02:08.189Z,1.60
2019-02-04T21:05:13.552Z,1.70
2019-02-04T21:08:18.397Z,1.80
2019-02-04T21:11:23.269Z,1.80
2019-02-04T21:14:28.198Z,1.60
2019-02-04T21:17:33.118Z,1.60
2019-02-04T21:20:39.000Z,1.60
2019-02-04T21:23:43.889Z,1.50
2019-02-04T21:26:49.006Z,1.40
2019-02-04T21:29:54.062Z,1.40
2019-02-04T21:32:59.711Z,1.60
2019-02-04T21:36:04.751Z,1.20
2019-02-04T21:39:10.223Z,1.50
2019-02-04T21:42:15.338Z,1.70
2019-02-04T21:45:22.118Z,1.50
2019-02-04T21:48:26.962Z,1.70
2019-02-04T21:51:31.891Z,1.70
2019-02-04T21:54:36.826Z,1.60
2019-02-04T21:57:42.338Z,1.40
2019-02-04T22:00:47.230Z,1.40
2019-02-04T22:03:52.080Z,1.60
2019-02-04T22:06:56.981Z,1.40
2019-02-04T22:10:05.013Z,1.60
2019-02-04T22:13:10.154Z,1.50
2019-02-04T22:16:15.414Z,1.50
2019-02-04T22:19:20.326Z,1.70
2019-02-04T22:22:25.235Z,1.70
2019-02-04T22:25:30.174Z,1.60
2019-02-04T22:28:36.287Z,1.40
2019-02-04T22:31:41.191Z,1.60
2019-02-04T22:34:46.339Z,1.70
2019-02-04T22:37:51.301Z,1.50
2019-02-04T22:40:56.585Z,1.50
2019-02-04T22:44:01.535Z,1.40
2019-02-04T22:47:07.420Z,1.40
2019-02-04T22:53:22.921Z,1.50
2019-02-04T22:56:27.756Z,1.40
2019-02-04T22:59:32.599Z,1.70
2019-02-04T23:02:37.553Z,1.60
2019-02-04T23:05:42.523Z,1.70
2019-02-04T23:08:47.417Z,1.70
2019-02-04T23:11:52.664Z,1.80
2019-02-04T23:14:57.580Z,1.70
2019-02-04T23:18:02.535Z,1.70
2019-02-04T23:21:07.625Z,1.50
2019-02-04T23:24:12.510Z,1.60
2019-02-04T23:27:17.321Z,1.40
2019-02-04T23:30:22.299Z,1.70
2019-02-04T23:33:33.954Z,1.50
2019-02-04T23:36:33.776Z,1.70
2019-02-04T23:39:38.648Z,1.20
2019-02-04T23:42:43.577Z,1.30
2019-02-04T23:45:48.469Z,1.50
2019-02-04T23:48:53.322Z,1.20
2019-02-04T23:51:58.254Z,1.30
2019-02-04T23:55:06.369Z,1.20
2019-02-04T23:58:11.257Z,1.70
